Latest Weather Observations for Pallamana

IDS60801

Issued at 11:51 am CST Sunday 22 September 2019 (issued every 10 minutes, with the page automatically refreshed every 10 minutes)

About weather observations | Map of weather stations | Latest weather observations for SA | Other Formats
Station Details ID: 024584 Name: PALLAMANA AERODROME Lat: -35.06 Lon: 139.23 Height: 45.0 m
Data from the previous 72 hours. | See also: Recent months at Pallamana
Date/Time
CST
Temp
°C
App
Temp
°C
Dew
Point
°C
Rel
Hum
%
Delta-T
°C
Wind Press
QNH
hPa
Press
MSL
hPa
Rain since
9am
mm
Dir  Spd
km/h
Gust
km/h
Spd
kts
Gust
kts
22/11:30am 14.2 9.3 5.0 54 4.3 NNW 20 26 11 14 1024.7 1024.7 0.0
22/11:00am 13.9 8.2 5.1 55 4.1 WNW 24 32 13 17 1024.9 1024.9 0.0
22/10:30am 12.8 7.6 3.6 53 4.1 NW 20 30 11 16 1025.0 1025.0 0.0
22/10:00am 12.5 7.3 5.4 62 3.3 NW 22 30 12 16 1025.2 1025.2 0.0
22/09:30am 12.0 7.0 4.5 60 3.4 WNW 20 28 11 15 1025.3 1025.3 0.0
22/09:00am 11.8 7.4 4.7 62 3.2 NW 17 26 9 14 1025.3 1025.3 0.8
22/08:30am 11.5 8.4 7.1 74 2.1 N 13 17 7 9 1025.1 1025.1 0.8
22/08:00am 9.5 6.8 7.4 87 1.0 N 11 13 6 7 1025.1 1025.1 0.8
22/07:30am 7.1 4.5 6.0 93 0.5 N 9 9 5 5 1024.9 1024.9 0.8
22/07:00am 3.9 1.2 2.9 93 0.4 NNW 6 7 3 4 1024.7 1024.7 0.8
22/06:30am 3.1 0.3 2.3 94 0.3 NNW 6 7 3 4 1024.5 1024.5 0.8
22/06:00am 2.2 -1.3 1.4 94 0.3 N 9 13 5 7 1024.1 1024.1 0.8
22/05:30am 1.6 -1.0 1.1 96 0.2 NNW 4 6 2 3 1023.8 1023.8 0.8
22/05:00am 1.2 -2.4 0.4 94 0.3 N 9 15 5 8 1023.4 1023.4 0.8
22/04:30am 1.5 -0.3 1.2 98 0.1 CALM 0 4 0 2 1023.2 1023.2 0.8
22/04:00am 0.8 -1.2 0.0 94 0.3 CALM 0 0 0 0 1023.0 1023.0 0.8
22/03:30am 1.8 -1.3 1.3 96 0.2 N 7 11 4 6 1022.8 1022.8 0.8
22/03:00am 1.6 -1.6 0.8 94 0.3 N 7 11 4 6 1022.8 1022.8 0.8
22/02:30am 1.9 -2.0 1.1 94 0.3 N 11 13 6 7 1022.9 1022.9 0.6
22/02:00am 2.0 -1.2 0.9 92 0.4 NW 7 9 4 5 1023.2 1023.2 0.6
22/01:30am 4.9 1.4 3.4 90 0.6 NW 11 13 6 7 1023.2 1023.2 0.6
22/01:00am 4.1 0.4 2.6 90 0.6 WNW 11 13 6 7 1023.2 1023.2 0.6
22/12:30am 4.7 1.1 3.2 90 0.6 WNW 11 11 6 6 1023.3 1023.3 0.6
22/12:00am 5.5 2.0 3.6 87 0.8 WNW 11 13 6 7 1023.4 1023.4 0.6
 
Date/Time
CST
Temp
°C
App
Temp
°C
Dew
Point
°C
Rel
Hum
%
Delta-T
°C
Wind Press
QNH
hPa
Press
MSL
hPa
Rain since
9am
mm
Dir  Spd
km/h
Gust
km/h
Spd
kts
Gust
kts
21/11:30pm 7.1 3.8 4.3 82 1.2 WNW 11 15 6 8 1023.2 1023.2 0.6
21/11:00pm 7.5 3.8 4.5 81 1.3 W 13 15 7 8 1023.0 1023.0 0.6
21/10:30pm 7.9 4.2 4.5 79 1.5 W 13 17 7 9 1023.0 1023.0 0.6
21/10:00pm 6.3 2.9 4.2 86 0.9 WNW 11 13 6 7 1022.9 1022.9 0.6
21/09:30pm 4.7 1.6 3.5 92 0.5 W 9 11 5 6 1023.1 1023.1 0.6
21/09:00pm 5.3 2.6 3.6 89 0.7 W 7 9 4 5 1022.9 1022.9 0.6
21/08:30pm 8.1 5.2 4.4 77 1.6 W 9 11 5 6 1022.8 1022.8 0.6
21/08:00pm 9.7 5.2 4.0 67 2.5 W 17 20 9 11 1022.5 1022.5 0.6
21/07:30pm 9.8 6.5 4.4 69 2.4 W 11 15 6 8 1022.3 1022.3 0.6
21/07:00pm 9.5 6.5 4.3 70 2.3 W 9 13 5 7 1021.7 1021.7 0.6
21/06:30pm 10.7 6.8 3.6 61 3.1 W 13 17 7 9 1021.3 1021.3 0.6
21/06:00pm 12.0 6.6 2.3 51 4.2 W 20 28 11 15 1021.0 1021.0 0.6
21/05:30pm 12.1 6.4 3.0 53 4.0 WSW 22 28 12 15 1020.6 1020.6 0.6
21/05:00pm 12.7 7.4 2.9 51 4.3 WSW 20 26 11 14 1020.2 1020.2 0.6
21/04:30pm 13.2 7.1 2.5 48 4.7 WSW 24 32 13 17 1019.9 1019.9 0.6
21/04:00pm 14.6 8.9 3.0 45 5.2 W 22 35 12 19 1019.4 1019.4 0.6
21/03:30pm 13.2 7.6 3.3 51 4.4 WNW 22 37 12 20 1019.2 1019.2 0.6
21/03:00pm 14.8 8.7 2.7 44 5.4 WSW 24 37 13 20 1018.9 1018.9 0.6
21/02:30pm 14.4 6.6 1.5 41 5.6 WSW 32 37 17 20 1018.5 1018.5 0.6
21/02:00pm 14.5 9.7 5.4 54 4.3 SW 20 32 11 17 1018.2 1018.2 0.6
21/01:30pm 14.8 8.9 7.3 61 3.7 SW 28 39 15 21 1018.2 1018.2 0.6
21/01:00pm 13.1 8.0 7.8 70 2.6 SW 24 33 13 18 1018.1 1018.1 0.6
21/12:45pm 12.4 6.7 8.4 76 2.0 WSW 28 46 15 25 1018.2 1018.2 0.6
21/12:30pm 13.3 8.8 8.7 73 2.3 SW 22 32 12 17 1018.0 1018.0 0.6
21/12:00pm 13.2 7.3 7.5 68 2.8 SW 28 41 15 22 1017.6 1017.6 0.6
21/11:52am 12.8 8.4 9.0 78 1.9 SW 22 30 12 16 1017.6 1017.6 0.4
21/11:35am 10.7 2.5 8.0 83 1.3 SW 41 61 22 33 1017.4 1017.4 0.4
21/11:31am 13.4 5.8 7.5 67 2.9 SW 37 61 20 33 1017.1 1017.1 0.2
21/11:30am 14.0 6.3 7.0 62 3.4 SW 37 50 20 27 1017.0 1017.0 0.2
21/11:00am 12.9 5.2 7.3 69 2.7 SW 37 50 20 27 1016.7 1016.7 0.2
21/10:47am 12.4 4.7 7.2 70 2.5 SW 37 56 20 30 1016.7 1016.7 0.2
21/10:30am 13.5 6.2 7.1 65 3.1 SW 35 50 19 27 1016.4 1016.4 0.2
21/10:21am 12.6 6.4 7.7 72 2.4 SW 30 39 16 21 1016.4 1016.4 0.2
21/10:02am 11.0 3.9 8.1 82 1.4 WSW 35 48 19 26 1016.4 1016.4 0.2
21/10:00am 11.2 4.6 7.9 80 1.6 WSW 32 46 17 25 1016.4 1016.4 0.2
21/09:56am 12.6 6.4 6.3 65 3.0 WSW 28 44 15 24 1016.3 1016.3 0.0
21/09:30am 12.6 8.5 7.9 73 2.3 W 19 26 10 14 1016.1 1016.1 0.0
21/09:00am 12.5 8.1 7.3 70 2.5 WSW 20 30 11 16 1015.6 1015.6 11.2
21/08:30am 12.0 8.5 7.2 72 2.3 WSW 15 22 8 12 1015.4 1015.4 11.2
21/08:00am 12.2 9.6 7.9 75 2.1 W 11 15 6 8 1015.0 1015.0 11.2
21/07:30am 10.8 8.6 7.7 81 1.5 WNW 9 13 5 7 1014.7 1014.7 11.2
21/07:00am 9.2 7.2 7.1 87 1.0 WNW 7 11 4 6 1014.2 1014.2 11.2
21/06:30am 8.9 6.1 6.8 87 1.0 WNW 11 15 6 8 1013.8 1013.8 11.2
21/06:00am 8.4 4.7 6.4 87 0.9 WSW 15 17 8 9 1013.5 1013.5 11.2
21/05:30am 9.1 4.6 6.1 81 1.4 WSW 19 24 10 13 1012.9 1012.9 11.2
21/05:00am 8.2 5.6 6.2 87 0.9 SW 9 13 5 7 1012.5 1012.5 11.2
21/04:30am 8.6 6.4 6.2 85 1.1 W 7 13 4 7 1012.2 1012.2 11.2
21/04:00am 8.4 6.3 6.7 89 0.8 WSW 7 9 4 5 1012.3 1012.3 11.2
21/03:30am 9.0 5.7 6.6 85 1.1 WSW 13 17 7 9 1012.0 1012.0 11.2
21/03:00am 9.5 6.8 7.2 85 1.1 WSW 11 15 6 8 1012.0 1012.0 11.2
21/02:30am 9.7 6.6 7.2 84 1.2 WNW 13 17 7 9 1012.0 1012.0 11.2
21/02:00am 9.5 6.5 7.8 89 0.8 W 13 19 7 10 1012.3 1012.3 11.2
21/01:30am 9.5 5.8 7.8 89 0.8 SW 17 24 9 13 1012.0 1012.0 11.2
21/01:00am 10.0 4.4 7.3 83 1.3 WSW 26 35 14 19 1012.4 1012.4 11.0
21/12:38am 10.3 5.3 8.0 86 1.1 W 24 35 13 19 1012.6 1012.6 10.8
21/12:30am 10.6 6.5 8.8 89 0.9 WNW 20 32 11 17 1012.7 1012.7 10.8
21/12:17am 10.6 8.9 9.8 95 0.4 N 9 11 5 6 1012.5 1012.5 10.8
21/12:00am 10.7 9.3 9.7 93 0.5 NE 7 9 4 5 1012.7 1012.7 10.6
 
Date/Time
CST
Temp
°C
App
Temp
°C
Dew
Point
°C
Rel
Hum
%
Delta-T
°C
Wind Press
QNH
hPa
Press
MSL
hPa
Rain since
9am
mm
Dir  Spd
km/h
Gust
km/h
Spd
kts
Gust
kts
20/11:30pm 10.6 9.3 9.8 95 0.4 ENE 7 11 4 6 1012.7 1012.7 10.4
20/11:05pm 10.6 9.3 9.8 95 0.4 SW 7 15 4 8 1012.3 1012.3 9.8
20/11:00pm 10.7 9.3 9.7 93 0.5 SW 7 9 4 5 1012.5 1012.5 9.4
20/10:30pm 10.8 9.4 9.6 92 0.6 SW 7 9 4 5 1013.1 1013.1 7.4
20/10:11pm 10.7 9.5 9.5 92 0.6 SW 6 9 3 5 1013.0 1013.0 5.6
20/10:00pm 10.8 9.0 9.6 92 0.6 SW 9 13 5 7 1012.9 1012.9 4.6
20/09:30pm 11.1 8.6 9.7 91 0.7 WSW 13 15 7 8 1013.5 1013.5 2.6
20/09:00pm 11.4 10.1 10.0 91 0.7 SSW 7 11 4 6 1014.2 1014.2 1.0
20/08:30pm 11.7 8.8 9.5 86 1.1 WSW 15 19 8 10 1013.6 1013.6 0.0
20/08:00pm 12.3 6.7 8.7 79 1.8 WSW 28 35 15 19 1013.1 1013.1 0.0
20/07:30pm 13.5 8.0 7.4 66 3.0 WSW 26 35 14 19 1012.8 1012.8 0.0
20/07:00pm 13.8 7.5 7.5 66 3.1 WSW 30 39 16 21 1012.7 1012.7 0.0
20/06:30pm 14.2 8.3 7.5 64 3.3 WSW 28 37 15 20 1012.2 1012.2 0.0
20/06:00pm 14.5 9.3 7.4 62 3.5 W 24 33 13 18 1012.3 1012.3 0.0
20/05:30pm 15.1 9.6 7.4 60 3.8 W 26 33 14 18 1012.6 1012.6 0.0
20/05:00pm 16.9 11.9 9.7 62 3.8 WSW 26 33 14 18 1012.4 1012.4 0.0
20/04:30pm 18.1 13.3 7.2 49 5.5 WSW 22 28 12 15 1012.0 1012.0 0.0
20/04:00pm 19.2 15.0 7.4 46 6.0 SW 19 24 10 13 1011.7 1011.7 0.0
20/03:30pm 19.9 16.5 7.7 45 6.3 SSW 15 20 8 11 1011.0 1011.1 0.0
20/03:00pm 20.1 16.7 7.7 44 6.4 SSW 15 20 8 11 1010.4 1010.5 0.0
20/02:30pm 20.1 18.5 7.9 45 6.3 SSE 6 15 3 8 1011.8 1011.8 0.0
20/02:00pm 20.3 18.0 7.5 43 6.6 SSE 9 17 5 9 1011.6 1011.6 0.0
20/01:30pm 20.3 18.0 7.5 43 6.6 SSE 9 19 5 10 1011.6 1011.6 0.0
20/01:00pm 20.3 18.0 7.5 43 6.6 SSE 9 17 5 9 1011.5 1011.5 0.0
20/12:30pm 20.2 17.5 7.3 43 6.6 SSE 11 19 6 10 1012.7 1012.7 0.0
20/12:00pm 20.2 17.1 7.3 43 6.6 SSW 13 17 7 9 1012.8 1012.8 0.0
20/11:30am 20.3 17.2 7.2 42 6.7 SSW 13 19 7 10 1013.0 1013.0 0.0
20/11:00am 19.8 17.5 9.0 49 5.7 ESE 11 20 6 11 1013.4 1013.4 0.0
20/10:30am 19.0 17.4 8.9 52 5.3 SE 7 11 4 6 1013.4 1013.4 0.0
20/10:00am 19.2 17.8 8.7 50 5.5 SSE 6 11 3 6 1013.8 1013.8 0.0
20/09:30am 18.2 16.3 9.0 55 4.8 SSE 9 11 5 6 1014.0 1014.0 0.0
20/09:00am 17.6 16.3 9.2 58 4.4 SW 6 7 3 4 1014.1 1014.1 0.0
20/08:30am 16.2 15.7 9.5 64 3.5 SW 2 9 1 5 1014.9 1014.9 0.0
20/08:00am 16.0 15.2 8.3 60 3.9 SW 2 9 1 5 1013.9 1013.9 0.0
20/07:30am 13.9 13.9 9.8 76 2.1 CALM 0 0 0 0 1013.6 1013.6 0.0
20/07:00am 13.3 12.8 9.2 76 2.1 SW 2 6 1 3 1013.7 1013.7 0.0
20/06:30am 13.1 12.7 8.1 71 2.5 CALM 0 0 0 0 1013.3 1013.3 0.0
20/06:00am 13.5 13.2 8.5 72 2.5 CALM 0 6 0 3 1012.8 1012.8 0.0
20/05:30am 15.5 13.0 8.2 62 3.7 SW 11 15 6 8 1012.4 1012.4 0.0
20/05:00am 16.7 13.5 6.8 52 4.9 WSW 13 19 7 10 1012.3 1012.3 0.0
20/04:30am 18.2 13.6 5.5 43 6.2 W 19 24 10 13 1011.7 1011.7 0.0
20/04:00am 19.0 14.0 1.6 31 7.9 W 17 24 9 13 1010.6 1010.7 0.0
20/03:30am 14.7 12.7 4.6 50 4.7 NW 4 9 2 5 1010.2 1010.3 0.0
20/03:00am 18.6 13.8 -2.2 24 8.7 NW 13 15 7 8 1010.1 1010.2 0.0
20/02:30am 14.3 11.5 2.9 46 5.1 NW 7 11 4 6 1010.4 1010.5 0.0
20/02:00am 17.1 13.7 -0.4 30 7.5 NW 7 9 4 5 1009.8 1009.9 0.0
20/01:30am 18.7 14.8 -1.5 25 8.6 NNW 9 11 5 6 1009.4 1009.4 0.0
20/01:00am 20.2 14.6 -3.0 20 9.7 N 17 20 9 11 1009.2 1009.2 0.0
20/12:30am 21.4 15.3 -4.3 17 10.6 N 19 22 10 12 1009.3 1009.3 0.0
20/12:00am 22.1 15.9 -4.5 16 11.0 N 19 24 10 13 1009.2 1009.2 0.0
 
Date/Time
CST
Temp
°C
App
Temp
°C
Dew
Point
°C
Rel
Hum
%
Delta-T
°C
Wind Press
QNH
hPa
Press
MSL
hPa
Rain since
9am
mm
Dir  Spd
km/h
Gust
km/h
Spd
kts
Gust
kts
19/11:35pm 22.9 16.5 -4.9 15 11.5 N 20 28 11 15 1008.7 1008.7 0.0
19/11:30pm 22.9 16.4 -5.5 14 11.6 N 20 28 11 15 1008.8 1008.8 0.0
19/11:00pm 23.0 15.8 -5.2 15 11.6 N 24 33 13 18 1008.8 1008.8 0.0
19/10:30pm 23.0 15.1 -4.7 15 11.5 N 28 33 15 18 1008.8 1008.8 0.0
19/10:00pm 22.3 15.9 -5.0 15 11.2 N 20 26 11 14 1008.7 1008.7 0.0
19/09:30pm 21.6 14.5 -4.3 17 10.7 N 24 28 13 15 1008.4 1008.4 0.0
19/09:00pm 20.8 14.5 -4.3 18 10.3 N 20 24 11 13 1008.4 1008.4 0.0
19/08:30pm 22.5 16.1 -5.0 15 11.3 N 20 24 11 13 1008.3 1008.3 0.0
19/08:00pm 22.8 16.3 -5.7 14 11.6 N 20 30 11 16 1008.1 1008.1 0.0
19/07:56pm 21.9 16.1 -5.0 16 11.0 N 17 24 9 13 1008.1 1008.1 0.0
19/07:30pm 21.6 16.2 -4.8 16 10.8 N 15 20 8 11 1008.0 1008.0 0.0
19/07:00pm 23.2 16.7 -6.2 13 11.9 N 20 28 11 15 1007.6 1007.6 0.0
19/06:30pm 25.7 16.7 -8.6 10 13.6 N 32 41 17 22 1007.4 1007.4 0.0
19/06:00pm 26.3 17.3 -8.5 9 13.9 N 32 44 17 24 1007.4 1007.4 0.0
19/05:30pm 27.5 17.1 -9.6 8 14.7 N 39 56 21 30 1007.3 1007.3 0.0
19/05:00pm 28.3 16.6 -8.6 8 15.0 N 46 65 25 35 1007.2 1007.2 0.0
19/04:30pm 28.7 15.8 -9.1 8 15.3 N 52 70 28 38 1006.9 1006.9 0.0
19/04:16pm 28.9 16.5 -8.3 8 15.2 N 50 69 27 37 1006.9 1006.9 0.0
19/04:00pm 28.9 16.6 -7.0 9 15.1 N 50 67 27 36 1007.1 1007.1 0.0
19/03:30pm 29.0 16.2 -8.0 8 15.3 N 52 72 28 39 1007.5 1007.5 0.0
19/03:05pm 29.2 16.8 -7.9 8 15.4 N 50 69 27 37 1007.7 1007.7 0.0
19/03:00pm 28.2 15.1 -7.6 9 14.8 N 54 70 29 38 1007.7 1007.7 0.0
19/02:46pm 28.3 16.0 -6.6 10 14.7 N 50 69 27 37 1007.9 1007.9 0.0
19/02:30pm 28.3 15.6 -7.3 9 14.8 N 52 69 28 37 1008.1 1008.1 0.0
19/02:00pm 27.7 13.2 -8.1 9 14.6 N 61 82 33 44 1007.9 1007.9 0.0
19/01:30pm 27.3 12.9 -7.6 9 14.3 N 61 80 33 43 1008.5 1008.5 0.0
19/01:00pm 26.5 12.9 -6.6 11 13.7 N 57 76 31 41 1009.3 1009.3 0.0
19/12:30pm 26.0 12.5 -7.7 10 13.6 N 56 80 30 43 1010.1 1010.2 0.0
19/12:02pm 24.2 11.7 -5.6 13 12.3 NNE 52 70 28 38 1010.7 1010.8 0.0
19/12:00pm 24.3 11.8 -5.3 13 12.3 NNE 52 67 28 36 1010.8 1010.9 0.0

Other formats

Comma delimited format used in spreadsheet applications
http://www.bom.gov.au/fwo/IDS60801/IDS60801.95818.axf

JavaScript Object Notation format (JSON) in row-major order
http://www.bom.gov.au/fwo/IDS60801/IDS60801.95818.json

Data quality

Most of these data are generated automatically and are frequently updated. Quality checks on data are not normally performed. It is possible for incorrect values to appear. Refer to information at About Latest Weather Observations and please check the disclaimer before using these data.